METAR Data
IDs: Format: Raw Decoded Include TAF

Data at: 2034 UTC 17 Nov 2019

KMHL 172015Z AUTO 29009G17KT 10SM BKN024 BKN047 09/04 A2993 RMK AO2 TSNO PWINO
KMHL 171955Z AUTO 29009G18KT 10SM SCT024 BKN047 BKN090 09/04 A2994 RMK AO2 TSNO PWINO
KMHL 171935Z AUTO 29009G15KT 10SM SCT022 SCT049 BKN070 08/03 A2994 RMK AO2 TSNO PWINO
KMHL 171915Z AUTO 29012KT 10SM SCT022 SCT047 SCT065 08/03 A2994 RMK AO2 TSNO PWINO
KMHL 171855Z AUTO 29011G16KT 10SM BKN075 07/03 A2995 RMK AO2 TSNO PWINO
KMHL 171835Z AUTO 29008KT 10SM OVC075 07/02 A2995 RMK AO2 TSNO PWINO
KMHL 171815Z AUTO 29011G16KT 10SM BKN070 08/02 A2996 RMK AO2 TSNO PWINO
KMHL 171755Z AUTO 29007KT 10SM SCT070 07/01 A2996 RMK AO2 TSNO PWINO
KMHL 171735Z AUTO 29006KT 10SM CLR 07/01 A2997 RMK AO2 TSNO PWINO
KMHL 171715Z AUTO 29005KT 10SM SCT110 07/01 A2997 RMK AO2 TSNO PWINO
KMHL 171655Z AUTO 29005KT 10SM SCT110 07/01 A2997 RMK AO2 TSNO PWINO
KMHL 171635Z AUTO 29005KT 10SM SCT080 SCT100 07/01 A2997 RMK AO2 TSNO PWINO
KMHL 171615Z AUTO 29006KT 10SM SCT100 07/01 A2998 RMK AO2 TSNO PWINO
KMHL 171555Z AUTO 29006KT 10SM SCT110 07/01 A2998 RMK AO2 TSNO PWINO
KMHL 171535Z AUTO 29007KT 10SM SCT075 SCT100 06/01 A2998 RMK AO2 TSNO PWINO
KMHL 171515Z AUTO 29007KT 10SM SCT075 06/02 A2998 RMK AO2 TSNO PWINO
KMHL 171455Z AUTO 29007KT 10SM SCT070 06/01 A2998 RMK AO2 TSNO PWINO
KMHL 171435Z AUTO 29007KT 10SM BKN070 06/01 A2998 RMK AO2 TSNO PWINO
KMHL 171415Z AUTO 29006KT 10SM SCT070 05/00 A2998 RMK AO2 TSNO PWINO
KMHL 171355Z AUTO 29006KT 10SM CLR 05/00 A2999 RMK AO2 TSNO PWINO
KMHL 171335Z AUTO 29005KT 10SM CLR 05/00 A2999 RMK AO2 TSNO PWINO
KMHL 171315Z AUTO 29005KT 10SM SCT075 05/00 A2999 RMK AO2 TSNO PWINO
KMHL 171255Z AUTO 29005KT 10SM CLR 06/00 A2999 RMK AO2 TSNO PWINO
KMHL 171235Z AUTO 29005KT 10SM CLR 06/00 A2999 RMK AO2 TSNO PWINO
KMHL 171215Z AUTO 29006KT 10SM CLR 06/00 A2999 RMK AO2 TSNO PWINO
KMHL 171155Z AUTO 29006KT 10SM CLR 06/00 A2999 RMK AO2 TSNO PWINO
KMHL 171135Z AUTO 29004KT 10SM CLR 05/00 A3000 RMK AO2 TSNO PWINO
KMHL 171115Z AUTO 29005KT 10SM CLR 05/00 A3001 RMK AO2 TSNO PWINO
KMHL 171055Z AUTO 29005KT 10SM CLR 05/00 A3002 RMK AO2 TSNO PWINO
KMHL 171035Z AUTO 29007KT 10SM CLR 05/00 A3002 RMK AO2 TSNO PWINO
KMHL 171015Z AUTO 29003KT 10SM CLR 04/00 A3003 RMK AO2 TSNO PWINO
KMHL 170955Z AUTO 29004KT 10SM CLR 04/00 A3002 RMK AO2 TSNO PWINO
KMHL 170935Z AUTO 29006KT 10SM CLR 03/00 A3004 RMK AO2 TSNO PWINO
KMHL 170915Z AUTO 29005KT 10SM CLR 03/00 A3004 RMK AO2 TSNO PWINO
KMHL 170855Z AUTO 29006KT 10SM CLR 03/00 A3005 RMK AO2 TSNO PWINO
KMHL 170835Z AUTO 29005KT 10SM CLR 03/00 A3005 RMK AO2 TSNO PWINO
KMHL 170815Z AUTO 29005KT 10SM CLR 03/00 A3005 RMK AO2 TSNO PWINO
KMHL 170755Z AUTO 29004KT 10SM CLR 03/00 A3007 RMK AO2 TSNO PWINO
KMHL 170735Z AUTO 00000KT 10SM CLR 03/00 A3009 RMK AO2 TSNO PWINO
KMHL 170715Z AUTO 29004KT 10SM CLR 03/00 A3009 RMK AO2 TSNO PWINO
KMHL 170655Z AUTO 29003KT 10SM CLR 03/00 A3009 RMK AO2 TSNO PWINO
KMHL 170635Z AUTO 29003KT 10SM CLR 03/00 A3009 RMK AO2 TSNO PWINO
KMHL 170615Z AUTO 29003KT 10SM CLR 03/00 A3010 RMK AO2 TSNO PWINO
KMHL 170555Z AUTO 29004KT 10SM CLR 03/00 A3009 RMK AO2 TSNO PWINO
KMHL 170535Z AUTO 29006KT 10SM CLR 03/00 A3009 RMK AO2 TSNO PWINO
KMHL 170515Z AUTO 29005KT 10SM CLR 03/00 A3010 RMK AO2 TSNO PWINO
KMHL 170455Z AUTO 29006KT 10SM CLR 03/00 A3010 RMK AO2 TSNO PWINO
KMHL 170435Z AUTO 29006KT 10SM CLR 03/00 A3011 RMK AO2 TSNO PWINO
KMHL 170415Z AUTO 29006KT 10SM CLR 04/00 A3011 RMK AO2 TSNO PWINO
KMHL 170355Z AUTO 29007KT 10SM CLR 05/00 A3010 RMK AO2 TSNO PWINO
KMHL 170335Z AUTO 29006KT 10SM CLR 05/00 A3010 RMK AO2 TSNO PWINO
KMHL 170315Z AUTO 29006KT 10SM CLR 05/00 A3009 RMK AO2 TSNO PWINO
KMHL 170255Z AUTO 29006KT 10SM CLR 05/00 A3009 RMK AO2 TSNO PWINO
KMHL 170235Z AUTO 29007KT 10SM CLR 05/00 A3009 RMK AO2 TSNO PWINO
KMHL 170215Z AUTO 29008KT 10SM CLR 05/00 A3009 RMK AO2 TSNO PWINO
KMHL 170155Z AUTO 29007KT 10SM CLR 06/00 A3010 RMK AO2 TSNO PWINO
KMHL 170135Z AUTO 29006KT 10SM CLR 06/M01 A3010 RMK AO2 TSNO PWINO
KMHL 170115Z AUTO 29006KT 10SM CLR 06/M01 A3010 RMK AO2 TSNO PWINO
KMHL 170055Z AUTO 29007KT 10SM CLR 06/M01 A3010 RMK AO2 TSNO PWINO
KMHL 170035Z AUTO 29006KT 10SM CLR 07/M01 A3011 RMK AO2 TSNO PWINO
KMHL 170015Z AUTO 29006KT 10SM CLR 07/M02 A3010 RMK AO2 TSNO PWINO
KMHL 162355Z AUTO 29005KT 10SM CLR 07/M01 A3011 RMK AO2 TSNO PWINO
KMHL 162335Z AUTO 29006KT 10SM CLR 08/M01 A3011 RMK AO2 TSNO PWINO
KMHL 162315Z AUTO 29006KT 10SM CLR 08/M01 A3012 RMK AO2 TSNO PWINO
KMHL 162255Z AUTO 29006KT 10SM CLR 09/M01 A3012 RMK AO2 TSNO PWINO
KMHL 162235Z AUTO 29008KT 10SM CLR 11/M01 A3012 RMK AO2 TSNO PWINO
KMHL 162215Z AUTO 29009KT 10SM CLR 11/M01 A3013 RMK AO2 TSNO PWINO
KMHL 162155Z AUTO 29008KT 10SM CLR 11/M01 A3013 RMK AO2 TSNO PWINO
KMHL 162135Z AUTO 29009KT 10SM CLR 12/M01 A3014 RMK AO2 TSNO PWINO
KMHL 162115Z AUTO 29009KT 10SM CLR 12/M01 A3014 RMK AO2 TSNO PWINO
KMHL 162055Z AUTO 29009KT 10SM CLR 12/M02 A3014 RMK AO2 TSNO PWINO
KMHL 162035Z AUTO 29008KT 10SM CLR 12/00 A3015 RMK AO2 TSNO PWINO
KMHL 162015Z AUTO 29009KT 10SM CLR 12/M01 A3016 RMK AO2 TSNO PWINO
KMHL 161955Z AUTO 29007KT 10SM CLR 11/M01 A3017 RMK AO2 TSNO PWINO
KMHL 161935Z AUTO 29007KT 10SM CLR 11/M01 A3019 RMK AO2 TSNO PWINO
KMHL 161915Z AUTO 29008KT 10SM CLR 10/M01 A3020 RMK AO2 TSNO PWINO
KMHL 161855Z AUTO 29007KT 10SM CLR 10/M01 A3022 RMK AO2 TSNO PWINO
KMHL 161835Z AUTO 29007KT 10SM CLR 09/M01 A3022 RMK AO2 TSNO PWINO
KMHL 161815Z AUTO 29009KT 10SM CLR 10/M02 A3023 RMK AO2 TSNO PWINO
KMHL 161755Z AUTO 29008KT 10SM CLR 09/M02 A3025 RMK AO2 TSNO PWINO
KMHL 161735Z AUTO 29009KT 10SM CLR 08/M02 A3026 RMK AO2 TSNO PWINO
KMHL 161715Z AUTO 29009KT 10SM CLR 07/M02 A3027 RMK AO2 TSNO PWINO
KMHL 161655Z AUTO 29009KT 10SM CLR 07/M02 A3028 RMK AO2 TSNO PWINO
KMHL 161635Z AUTO 29008KT 10SM CLR 07/M03 A3029 RMK AO2 TSNO PWINO
KMHL 161615Z AUTO 29009KT 10SM CLR 06/M03 A3030 RMK AO2 TSNO PWINO
KMHL 161555Z AUTO 29009KT 10SM CLR 05/M03 A3031 RMK AO2 TSNO PWINO
KMHL 161535Z AUTO 29005KT 10SM CLR 03/M03 A3031 RMK AO2 TSNO PWINO
KMHL 161515Z AUTO 29005KT 10SM CLR 02/M03 A3031 RMK AO2 TSNO PWINO
KMHL 161455Z AUTO 29004KT 10SM CLR 01/M04 A3031 RMK AO2 TSNO PWINO
KMHL 161435Z AUTO 29003KT 10SM CLR 00/M05 A3031 RMK AO2 TSNO PWINO
KMHL 161415Z AUTO 29003KT 10SM CLR 00/M05 A3031 RMK AO2 TSNO PWINO
KMHL 161355Z AUTO 29003KT 10SM CLR M01/M06 A3031 RMK AO2 TSNO PWINO
KMHL 161335Z AUTO 29003KT 10SM CLR M02/M06 A3031 RMK AO2 TSNO PWINO
KMHL 161315Z AUTO 29004KT 10SM CLR M02/M06 A3031 RMK AO2 TSNO PWINO
KMHL 161255Z AUTO 29004KT 10SM CLR M02/M06 A3031 RMK AO2 TSNO PWINO
KMHL 161235Z AUTO 29003KT 10SM CLR M02/M06 A3031 RMK AO2 TSNO PWINO
KMHL 161215Z AUTO 00000KT 10SM CLR M02/M06 A3031 RMK AO2 TSNO PWINO
KMHL 161155Z AUTO 29004KT 10SM CLR M02/M06 A3031 RMK AO2 TSNO PWINO
KMHL 161135Z AUTO 29004KT 10SM CLR M02/M06 A3031 RMK AO2 TSNO PWINO
KMHL 161115Z AUTO 29003KT 10SM CLR M02/M06 A3031 RMK AO2 TSNO PWINO
KMHL 161055Z AUTO 29003KT 10SM CLR M02/M06 A3031 RMK AO2 TSNO PWINO
KMHL 161035Z AUTO 29003KT 10SM CLR M02/M06 A3031 RMK AO2 TSNO PWINO
KMHL 161015Z AUTO 29004KT 10SM CLR M02/M06 A3031 RMK AO2 TSNO PWINO
KMHL 160955Z AUTO 29004KT 10SM CLR M02/M06 A3032 RMK AO2 TSNO PWINO
KMHL 160935Z AUTO 29003KT 10SM CLR M01/M06 A3032 RMK AO2 TSNO PWINO
KMHL 160915Z AUTO 29004KT 10SM CLR M01/M06 A3032 RMK AO2 TSNO PWINO
KMHL 160855Z AUTO 29004KT 10SM CLR M01/M06 A3032 RMK AO2 TSNO PWINO
KMHL 160835Z AUTO 29003KT 10SM CLR M01/M06 A3032 RMK AO2 TSNO PWINO